Overview Statistics Trail Chart Weather Telemetry Raw packets
 

This is the latest recevied weather packets stored in our database for station/object IW9CSJ-13. If no packets are shown the sender has not sent any weather packets the latest 10 day(s).

<< 1 2 3 4 >>
Time Temp. Humidity Pressure Rain* Wind** Luminosity Snow
1788419120 28.89° C 62% 1016.8 hPa 0 mm - - -
1788418220 28.33° C 64% 1016.7 hPa 0 mm - - -
1788417922 27.22° C 65% 1016.7 hPa 0 mm - - -
1788417320 27.78° C 64% 1016.7 hPa 0 mm - - -
1788373520 26.11° C 70% 1017 hPa 0 mm - - -
1788373220 26.11° C 70% 1016.9 hPa 0 mm - - -
1788372621 26.11° C 70% 1016.8 hPa 0 mm - - -
1788372021 26.11° C 69% 1016.7 hPa 0 mm - - -
1788371721 26.11° C 70% 1016.5 hPa 0 mm - - -
1788371421 26.11° C 70% 1016.5 hPa 0 mm - - -
1788370820 26.67° C 70% 1016.5 hPa 0 mm - - -
1788370520 26.67° C 70% 1016.5 hPa 0 mm - - -
1788369021 26.67° C 68% 1016.7 hPa 0 mm - - -
1788368720 27.22° C 67% 1016.7 hPa 0 mm - - -
1788368420 27.22° C 67% 1016.7 hPa 0 mm - - -
1788367821 27.22° C 65% 1017 hPa 0 mm - - -
1788367220 27.78° C 65% 1017 hPa 0 mm - - -
1788366921 27.78° C 65% 1017 hPa 0 mm - - -
1788366021 28.33° C 62% 1017.2 hPa 0 mm - - -
1788365421 28.33° C 62% 1017.1 hPa 0 mm - - -
1788363321 28.89° C 56% 1017.3 hPa 0 mm - - -
1788363020 28.89° C 54% 1017.3 hPa 0 mm - - -
1788362720 28.89° C 53% 1017.2 hPa 0 mm - - -
1788362421 28.89° C 53% 1017.2 hPa 0 mm - - -
1788361821 29.44° C 51% 1017.3 hPa 0 mm - - -

* Rain latest hour (hover to see other rain measurements)
** Current wind speed in m/s (hover to see current wind gust speed)